Time;durP1;ratioP1;P1;durP2;ratioP2;P2;SDS_P1;SDS_P2;PMS_P1;PMS_P2;Temp;Humidity;BMP_temperature;BMP_pressure;BME280_temperature;BME280_humidity;BME280_pressure;Samples;Min_cycle;Max_cycle;Signal;HPM_P1;HPM_P2
2022/04/26 03:36:32;;;;;;;115.22;32.67;;;;;;;-139.48;100.00;61774.03;4993208;28;20133;-70
2022/04/26 03:39:16;;;;;;;148.65;40.28;;;;;;;-139.48;100.00;61774.03;4994181;28;20141;-71
2022/04/26 03:42:00;;;;;;;151.48;41.22;;;;;;;-139.48;100.00;61774.03;4992756;28;20104;-71
2022/04/26 03:44:45;;;;;;;151.90;40.08;;;;;;;-139.48;100.00;61774.03;4979557;28;20526;-71
2022/04/26 03:47:28;;;;;;;138.50;39.75;;;;;;;-139.48;100.00;61774.03;4992894;28;20103;-71
2022/04/26 03:50:12;;;;;;;130.02;42.45;;;;;;;-139.48;100.00;61774.03;4994165;28;20129;-71
2022/04/26 03:52:56;;;;;;;119.13;42.30;;;;;;;-139.48;100.00;61774.03;4994030;28;20053;-71
2022/04/26 03:55:40;;;;;;;178.60;47.40;;;;;;;-139.48;100.00;61774.03;4993088;28;20061;-70
2022/04/26 03:58:26;;;;;;;147.77;48.53;;;;;;;-139.48;100.00;61774.03;4993124;28;20125;-70
2022/04/26 04:01:10;;;;;;;210.88;51.70;;;;;;;-139.48;100.00;61774.03;4993876;28;20053;-71
2022/04/26 04:03:54;;;;;;;210.93;50.35;;;;;;;-139.48;100.00;61774.03;4992759;28;20045;-71
2022/04/26 04:06:38;;;;;;;174.57;43.22;;;;;;;-139.48;100.00;61774.03;4993992;28;20123;-71
2022/04/26 04:09:22;;;;;;;213.52;48.05;;;;;;;-139.48;100.00;61774.03;4992994;28;20050;-71
2022/04/26 04:12:07;;;;;;;170.02;44.22;;;;;;;-139.48;100.00;61774.03;4993944;28;20184;-71
2022/04/26 04:14:51;;;;;;;227.00;53.42;;;;;;;-139.48;100.00;61774.03;4993569;28;20053;-71
2022/04/26 04:17:35;;;;;;;134.02;46.70;;;;;;;-139.48;100.00;61774.03;4979203;28;20052;-71
2022/04/26 04:20:19;;;;;;;153.00;48.83;;;;;;;-139.48;100.00;61774.03;4993468;28;20045;-71
2022/04/26 04:23:03;;;;;;;158.38;50.97;;;;;;;-139.48;100.00;61774.03;4979151;28;20096;-71
2022/04/26 04:25:47;;;;;;;179.70;56.75;;;;;;;-139.48;100.00;61774.03;4993820;28;20549;-71
2022/04/26 04:28:33;;;;;;;201.65;55.70;;;;;;;-139.48;100.00;61774.03;4992821;28;20053;-71
2022/04/26 04:31:16;;;;;;;163.65;54.05;;;;;;;-139.48;100.00;61774.03;4978649;28;20466;-71
2022/04/26 04:34:02;;;;;;;188.55;58.22;;;;;;;-139.48;100.00;61774.03;4993747;28;20053;-71
2022/04/26 04:36:46;;;;;;;214.23;60.42;;;;;;;-139.48;100.00;61774.03;4978878;28;20057;-70
2022/04/26 04:39:30;;;;;;;257.23;62.20;;;;;;;-139.48;100.00;61774.03;4992630;28;20045;-71
2022/04/26 04:42:14;;;;;;;249.73;62.25;;;;;;;-139.48;100.00;61774.03;4993436;28;20068;-71
2022/04/26 04:44:58;;;;;;;239.90;56.55;;;;;;;-139.48;100.00;61774.03;4992382;28;20096;-71
2022/04/26 04:47:42;;;;;;;251.88;62.10;;;;;;;-139.48;100.00;61774.03;4992661;28;20053;-71
2022/04/26 04:50:26;;;;;;;255.35;61.03;;;;;;;-139.48;100.00;61774.03;4992339;28;20141;-70
2022/04/26 04:53:10;;;;;;;171.30;53.55;;;;;;;-139.48;100.00;61774.03;4993849;28;20133;-71
2022/04/26 04:55:54;;;;;;;188.40;55.40;;;;;;;-139.48;100.00;61774.03;4982711;28;20100;-71
2022/04/26 04:58:38;;;;;;;282.63;55.42;;;;;;;-139.48;100.00;61774.03;4997109;28;20100;-70
2022/04/26 05:01:22;;;;;;;170.25;52.42;;;;;;;-139.48;100.00;61774.03;4996983;28;20085;-71
2022/04/26 05:04:06;;;;;;;;;;;;;;;-139.48;100.00;61774.03;4996486;28;20053;-71
2022/04/26 05:06:50;;;;;;;204.90;53.40;;;;;;;-139.48;100.00;61774.03;4996276;28;19936;-71
2022/04/26 05:09:34;;;;;;;201.40;56.03;;;;;;;-139.48;100.00;61774.03;4995972;28;20073;-71
2022/04/26 05:12:19;;;;;;;186.98;54.95;;;;;;;-139.48;100.00;61774.03;4996781;28;20053;-71
2022/04/26 05:15:03;;;;;;;215.68;57.30;;;;;;;-139.48;100.00;61774.03;4995755;28;20096;-71
2022/04/26 05:17:47;;;;;;;230.07;58.05;;;;;;;-139.48;100.00;61774.03;4996060;28;20117;-71
2022/04/26 05:20:31;;;;;;;234.98;57.92;;;;;;;-139.48;100.00;61774.03;4995680;28;20049;-71
2022/04/26 05:26:18;;;;;;;262.20;60.28;;;;;;;-139.48;100.00;61774.03;4997013;28;20184;-71
2022/04/26 05:29:05;;;;;;;218.73;56.40;;;;;;;-139.48;100.00;61774.03;4995738;28;20133;-71
2022/04/26 05:31:49;;;;;;;213.55;54.03;;;;;;;-139.48;100.00;61774.03;4996421;28;20513;-71
2022/04/26 05:34:33;;;;;;;197.57;52.65;;;;;;;-139.48;100.00;61774.03;4996196;28;20517;-71
2022/04/26 05:37:17;;;;;;;207.05;53.60;;;;;;;-139.48;100.00;61774.03;4995153;28;20133;-70
2022/04/26 05:40:04;;;;;;;142.98;46.90;;;;;;;-139.48;100.00;61774.03;4996314;28;20096;-71
2022/04/26 05:42:48;;;;;;;177.82;49.47;;;;;;;-139.48;100.00;61774.03;4981488;28;20128;-71
2022/04/26 05:45:32;;;;;;;194.40;49.25;;;;;;;-139.48;100.00;61774.03;4981751;28;20053;-71
2022/04/26 05:48:15;;;;;;;150.70;46.08;;;;;;;-139.48;100.00;61774.03;4994955;28;20052;-71
2022/04/26 05:50:59;;;;;;;170.77;48.55;;;;;;;-139.48;100.00;61774.03;4981555;28;20105;-70
2022/04/26 05:53:43;;;;;;;150.30;46.08;;;;;;;-139.48;100.00;61774.03;4996090;28;20093;-71
2022/04/26 05:56:27;;;;;;;149.35;47.17;;;;;;;-139.48;100.00;61774.03;4995101;28;20521;-70
2022/04/26 05:59:11;;;;;;;144.73;44.75;;;;;;;-139.48;100.00;61774.03;4995722;28;20054;-71
2022/04/26 06:01:55;;;;;;;152.02;45.55;;;;;;;-139.48;100.00;61774.03;4981100;28;20045;-70
2022/04/26 06:04:39;;;;;;;187.18;49.78;;;;;;;-139.48;100.00;61774.03;4994636;28;20049;-71
2022/04/26 06:07:23;;;;;;;178.30;48.13;;;;;;;-139.48;100.00;61774.03;4994853;28;20045;-71
2022/04/26 06:10:08;;;;;;;113.15;41.92;;;;;;;-139.48;100.00;61774.03;4994874;28;20125;-71
2022/04/26 06:12:52;;;;;;;88.85;38.80;;;;;;;-139.48;100.00;61774.03;4994379;28;20105;-71
2022/04/26 06:15:36;;;;;;;146.90;43.83;;;;;;;-139.48;100.00;61774.03;4994662;28;20133;-71
2022/04/26 06:18:20;;;;;;;103.03;39.08;;;;;;;-139.48;100.00;61774.03;4994478;28;20073;-70
2022/04/26 06:21:04;;;;;;;172.07;48.70;;;;;;;-139.48;100.00;61774.03;4995276;28;20062;-70
2022/04/26 06:23:48;;;;;;;129.27;40.67;;;;;;;-139.48;100.00;61774.03;4995527;28;20184;-70
2022/04/26 06:26:32;;;;;;;81.60;35.85;;;;;;;-139.48;100.00;61774.03;4995313;28;20088;-70
2022/04/26 06:29:16;;;;;;;120.93;40.08;;;;;;;-139.48;100.00;61774.03;4994282;28;20061;-70
2022/04/26 06:32:02;;;;;;;69.50;34.53;;;;;;;-139.48;100.00;61774.03;4994326;28;20405;-70
2022/04/26 06:34:45;;;;;;;144.82;43.97;;;;;;;-139.48;100.00;61774.03;4994202;28;20069;-70
2022/04/26 06:37:30;;;;;;;;;;;;;;;-139.48;100.00;61774.03;4981044;28;20057;-70
2022/04/26 06:40:14;;;;;;;94.20;38.92;;;;;;;-139.48;100.00;61774.03;4994878;28;20384;-70
2022/04/26 06:42:58;;;;;;;153.07;46.42;;;;;;;-139.48;100.00;61774.03;4994758;28;20097;-70
2022/04/26 06:45:44;;;;;;;131.10;43.70;;;;;;;-139.48;100.00;61774.03;4980531;28;20133;-70
2022/04/26 06:48:28;;;;;;;96.93;37.20;;;;;;;-139.48;100.00;61774.03;4994188;28;20136;-71
2022/04/26 06:51:12;;;;;;;86.07;39.05;;;;;;;-139.48;100.00;61774.03;4994844;28;20184;-70
2022/04/26 06:53:56;;;;;;;100.22;38.78;;;;;;;-139.48;100.00;61774.03;4980313;28;20054;-70
2022/04/26 06:56:40;;;;;;;119.90;42.92;;;;;;;-139.48;100.00;61774.03;4993942;28;20409;-70
2022/04/26 06:59:24;;;;;;;95.65;40.30;;;;;;;-139.48;100.00;61774.03;4993861;28;20112;-70
2022/04/26 07:02:08;;;;;;;90.20;38.75;;;;;;;-139.48;100.00;61774.03;4994739;28;20096;-70
2022/04/26 07:04:52;;;;;;;98.90;40.35;;;;;;;-139.48;100.00;61774.03;4993604;28;20426;-70
2022/04/26 07:07:36;;;;;;;118.30;44.72;;;;;;;-139.48;100.00;61774.03;4995000;28;20092;-70
2022/04/26 07:10:21;;;;;;;121.32;45.72;;;;;;;-139.48;100.00;61774.03;4994638;28;20054;-70
2022/04/26 07:13:05;;;;;;;203.90;53.22;;;;;;;-139.48;100.00;61774.03;4993430;28;20126;-70
2022/04/26 07:15:49;;;;;;;125.85;46.75;;;;;;;-139.48;100.00;61774.03;4993497;28;20057;-70
2022/04/26 07:18:36;;;;;;;133.43;45.60;;;;;;;-139.48;100.00;61774.03;4993630;28;20533;-70
2022/04/26 07:21:20;;;;;;;140.80;49.45;;;;;;;-139.48;100.00;61774.03;4993166;28;20584;-70
2022/04/26 07:24:04;;;;;;;126.95;46.88;;;;;;;-139.48;100.00;61774.03;4994327;28;20084;-70
2022/04/26 07:26:50;;;;;;;118.88;48.95;;;;;;;-139.48;100.00;61774.03;4993522;28;20081;-70
2022/04/26 07:29:34;;;;;;;135.73;47.50;;;;;;;-139.48;100.00;61774.03;4994102;28;20052;-70
2022/04/26 07:32:18;;;;;;;76.47;35.22;;;;;;;-139.48;100.00;61774.03;4992980;28;20517;-70
2022/04/26 07:35:03;;;;;;;130.82;43.10;;;;;;;-139.48;100.00;61774.03;4993088;28;20529;-70
2022/04/26 07:37:47;;;;;;;109.68;40.53;;;;;;;-139.48;100.00;61774.03;4993916;28;20052;-70
2022/04/26 07:40:32;;;;;;;84.97;39.15;;;;;;;-139.48;100.00;61774.03;4994210;28;20049;-70
2022/04/26 07:43:16;;;;;;;103.78;40.22;;;;;;;-139.48;100.00;61774.03;4993951;28;20138;-70
2022/04/26 07:46:00;;;;;;;103.47;41.70;;;;;;;-139.48;100.00;61774.03;4979451;28;20057;-70
2022/04/26 07:48:44;;;;;;;68.85;35.10;;;;;;;-139.48;100.00;61774.03;4992944;28;20081;-70
2022/04/26 07:51:27;;;;;;;75.13;35.10;;;;;;;-139.48;100.00;61774.03;4993358;28;20397;-70
2022/04/26 07:54:11;;;;;;;52.25;29.58;;;;;;;-139.48;100.00;61774.03;4993103;28;20049;-70
2022/04/26 07:56:56;;;;;;;46.00;27.30;;;;;;;-139.48;100.00;61774.03;4993221;28;20076;-70
2022/04/26 07:59:40;;;;;;;44.45;27.17;;;;;;;-139.48;100.00;61774.03;4994141;28;20610;-70
2022/04/26 08:02:24;;;;;;;30.80;20.00;;;;;;;-139.48;100.00;61774.03;4993147;28;20084;-70
2022/04/26 08:05:08;;;;;;;18.67;13.57;;;;;;;-139.48;100.00;61774.03;4993797;28;20049;-70
2022/04/26 08:07:52;;;;;;;15.02;11.73;;;;;;;-139.48;100.00;61774.03;4992710;28;20092;-70
2022/04/26 08:10:36;;;;;;;14.90;11.93;;;;;;;-139.48;100.00;61774.03;4978940;28;20053;-70
2022/04/26 08:13:20;;;;;;;15.82;10.80;;;;;;;-139.48;100.00;61774.03;4992838;28;20425;-70
2022/04/26 08:16:04;;;;;;;14.77;11.05;;;;;;;-139.48;100.00;61774.03;4993637;28;20057;-69
2022/04/26 08:18:48;;;;;;;14.20;11.80;;;;;;;-139.48;100.00;61774.03;4992610;28;20053;-70
2022/04/26 08:21:32;;;;;;;14.57;11.50;;;;;;;-139.48;100.00;61774.03;4992720;28;20053;-70
2022/04/26 08:27:30;;;;;;;13.02;9.85;;;;;;;-139.48;100.00;61774.03;4994061;28;20097;-70
2022/04/26 08:30:14;;;;;;;11.50;9.18;;;;;;;-139.48;100.00;61774.03;4997388;28;20042;-69
2022/04/26 08:32:58;;;;;;;17.13;10.90;;;;;;;-139.48;100.00;61774.03;4996632;28;20045;-69
2022/04/26 08:35:42;;;;;;;14.60;11.35;;;;;;;-139.48;100.00;61774.03;4982846;28;20049;-70
2022/04/26 08:38:26;;;;;;;19.23;11.75;;;;;;;-139.48;100.00;61774.03;4982492;28;20133;-69
2022/04/26 08:41:12;;;;;;;12.73;10.82;;;;;;;-139.48;100.00;61774.03;4996391;28;20050;-69
2022/04/26 08:43:57;;;;;;;14.73;11.35;;;;;;;-139.48;100.00;61774.03;4997407;28;20097;-69
2022/04/26 08:52:50;;;;;;;14.00;11.18;;;;;;;-139.48;100.00;61774.03;4996185;28;20465;-69
2022/04/26 08:56:03;;;;;;;16.60;11.68;;;;;;;-139.48;100.00;61774.03;4995949;28;20089;-70
2022/04/26 08:58:48;;;;;;;17.67;13.00;;;;;;;-139.48;100.00;61774.03;4982730;28;20057;-69
2022/04/26 09:01:32;;;;;;;17.67;13.80;;;;;;;-139.48;100.00;61774.03;4996589;28;20053;-70
2022/04/26 09:04:17;;;;;;;13.73;10.65;;;;;;;-139.48;100.00;61774.03;4996011;28;20057;-70
2022/04/26 09:07:01;;;;;;;13.55;10.57;;;;;;;-139.48;100.00;61774.03;4996994;28;20116;-70
2022/04/26 09:09:45;;;;;;;16.33;10.75;;;;;;;-139.48;100.00;61774.03;4996746;28;20069;-70
2022/04/26 09:12:28;;;;;;;17.70;12.80;;;;;;;-139.48;100.00;61774.03;4981696;28;20254;-69
2022/04/26 09:15:16;;;;;;;17.02;12.88;;;;;;;-139.48;100.00;61774.03;4996773;28;20169;-70
2022/04/26 09:18:27;;;;;;;18.92;13.45;;;;;;;-139.48;100.00;61774.03;4996675;28;20086;-70
2022/04/26 09:21:11;;;;;;;19.52;12.55;;;;;;;-139.48;100.00;61774.03;4995655;28;20053;-70
2022/04/26 09:23:57;;;;;;;17.13;13.23;;;;;;;-139.48;100.00;61774.03;4996689;28;20413;-69
2022/04/26 09:26:41;;;;;;;20.27;14.13;;;;;;;-139.48;100.00;61774.03;4995457;28;20513;-70
2022/04/26 09:29:27;;;;;;;17.40;12.60;;;;;;;-139.48;100.00;61774.03;4995329;28;20065;-70
2022/04/26 09:32:12;;;;;;;21.23;12.75;;;;;;;-139.48;100.00;61774.03;4996420;28;20076;-70
2022/04/26 09:34:56;;;;;;;19.92;14.05;;;;;;;-139.48;100.00;61774.03;4995302;28;20052;-69
2022/04/26 09:37:43;;;;;;;20.63;14.85;;;;;;;-139.48;100.00;61774.03;4981399;28;20085;-70
2022/04/26 09:40:35;;;;;;;22.65;14.88;;;;;;;-139.48;100.00;61774.03;4994938;28;20091;-70
2022/04/26 09:43:20;;;;;;;16.20;11.50;;;;;;;-139.48;100.00;61774.03;4981880;28;20069;-69
2022/04/26 09:46:08;;;;;;;17.30;12.02;;;;;;;-139.48;100.00;61774.03;4996047;28;20049;-69
2022/04/26 09:48:53;;;;;;;17.08;10.88;;;;;;;-139.48;100.00;61774.03;4995242;28;20045;-70
2022/04/26 09:51:37;;;;;;;16.17;11.50;;;;;;;-139.48;100.00;61774.03;4995910;28;20069;-70
2022/04/26 09:54:22;;;;;;;17.27;10.45;;;;;;;-139.48;100.00;61774.03;4995782;28;20053;-70
2022/04/26 09:57:06;;;;;;;15.57;11.52;;;;;;;13.35;nan;100287.56;4995188;28;20053;-70
2022/04/26 09:59:50;;;;;;;16.95;10.27;;;;;;;13.49;nan;100294.16;4994917;28;20049;-70
2022/04/26 10:02:36;;;;;;;15.35;11.25;;;;;;;14.18;nan;100290.13;4981292;28;20049;-70
2022/04/26 10:05:21;;;;;;;16.15;12.43;;;;;;;16.54;nan;100280.66;4994808;28;20053;-69
2022/04/26 10:08:05;;;;;;;14.02;11.55;;;;;;;17.58;nan;100282.22;4994579;28;20045;-70
2022/04/26 10:10:49;;;;;;;14.52;10.88;;;;;;;17.58;nan;100282.22;4980824;28;20069;-71
2022/04/26 10:13:42;;;;;;;;;;;;;;;18.54;nan;100292.44;4995185;28;20096;-70
2022/04/26 10:16:26;;;;;;;12.48;10.07;;;;;;;18.28;nan;100275.13;4994658;28;19971;-70
2022/04/26 10:19:12;;;;;;;13.52;11.18;;;;;;;18.34;nan;100285.16;4994915;28;20045;-71
2022/04/26 10:21:56;;;;;;;11.68;9.30;;;;;;;18.24;nan;100289.19;4994419;28;20049;-70
2022/04/26 10:25:11;;;;;;;11.57;10.27;;;;;;;15.15;nan;100305.13;4994516;28;20097;-70
2022/04/26 10:28:21;;;;;;;17.38;10.88;;;;;;;15.15;nan;100305.13;4994228;28;20088;-70
2022/04/26 10:31:10;;;;;;;12.60;9.70;;;;;;;12.07;nan;100333.94;4980808;28;20466;-69
2022/04/26 10:33:58;;;;;;;16.50;12.05;;;;;;;-139.48;100.00;61774.03;4994380;28;20084;-69
2022/04/26 10:36:43;;;;;;;29.60;16.30;;;;;;;-139.48;100.00;61774.03;4994607;28;20089;-69
2022/04/26 10:39:35;;;;;;;24.30;15.73;;;;;;;-139.48;100.00;61774.03;4980675;28;20068;-69
2022/04/26 10:42:19;;;;;;;25.50;16.55;;;;;;;-139.48;100.00;61774.03;4993847;28;20048;-69
2022/04/26 10:45:11;;;;;;;23.95;15.40;;;;;;;-139.48;100.00;61774.03;4995042;28;20080;-69
2022/04/26 10:47:55;;;;;;;26.35;16.95;;;;;;;-139.48;100.00;61774.03;4994180;28;20501;-69
2022/04/26 10:50:39;;;;;;;20.92;13.05;;;;;;;-139.48;100.00;61774.03;4993304;28;20054;-69
2022/04/26 10:53:45;;;;;;;12.32;9.48;;;;;;;-139.48;100.00;61774.03;4994652;28;20095;-69
2022/04/26 10:56:32;;;;;;;8.60;7.15;;;;;;;-139.48;100.00;61774.03;4994697;28;20065;-70
2022/04/26 10:59:18;;;;;;;8.55;6.90;;;;;;;-139.48;100.00;61774.03;4966262;28;20529;-69
2022/04/26 11:02:02;;;;;;;13.13;6.43;;;;;;;-139.48;100.00;61774.03;4993721;28;20042;-69
2022/04/26 11:04:46;;;;;;;9.00;6.07;;;;;;;-139.48;100.00;61774.03;4993501;28;20529;-69
2022/04/26 11:07:30;;;;;;;8.98;5.95;;;;;;;-139.48;100.00;61774.03;4994769;28;20092;-69
2022/04/26 11:10:18;;;;;;;9.98;6.10;;;;;;;-139.48;100.00;61774.03;4993753;28;20407;-69
2022/04/26 11:13:02;;;;;;;9.15;6.70;;;;;;;-139.48;100.00;61774.03;4993630;28;20085;-70
2022/04/26 11:15:46;;;;;;;7.80;5.88;;;;;;;-139.48;100.00;61774.03;4993689;28;20077;-69
2022/04/26 11:18:33;;;;;;;10.40;5.13;;;;;;;-139.48;100.00;61774.03;4994231;28;20517;-69
2022/04/26 11:21:17;;;;;;;7.82;5.93;;;;;;;-139.48;100.00;61774.03;4993120;28;20152;-69
2022/04/26 11:30:29;;;;;;;5.78;4.40;;;;;;;18.62;nan;100394.06;4993453;28;20521;-70
2022/04/26 11:33:22;;;;;;;6.45;4.72;;;;;;;19.94;nan;100383.03;4994210;28;20050;-70
2022/04/26 11:36:06;;;;;;;7.65;4.75;;;;;;;21.98;nan;100385.47;4993037;28;20045;-70
2022/04/26 11:38:57;;;;;;;5.25;3.80;;;;;;;22.98;nan;100389.09;4994030;28;20065;-70
2022/04/26 11:41:41;;;;;;;4.32;3.33;;;;;;;20.99;nan;100392.28;4992692;28;20057;-70
2022/04/26 11:44:24;;;;;;;4.03;3.30;;;;;;;22.19;nan;100387.88;4994162;28;20049;-70
2022/04/26 11:47:13;;;;;;;;;;;;;;;23.61;nan;100379.75;4993549;28;20045;-68
2022/04/26 11:50:07;;;;;;;4.93;2.90;;;;;;;25.53;nan;100378.28;4994189;28;19924;-68
2022/04/26 11:52:53;;;;;;;2.30;2.10;;;;;;;24.23;nan;100376.75;4993102;28;20041;-68
2022/04/26 11:55:44;;;;;;;3.75;2.20;;;;;;;24.19;nan;100384.53;4993145;28;20053;-69
2022/04/26 11:58:34;;;;;;;2.58;2.38;;;;;;;23.12;nan;100395.28;4994386;28;20061;-69
2022/04/26 12:01:18;;;;;;;3.25;2.72;;;;;;;24.18;nan;100403.88;4993031;28;20065;-70
2022/04/26 12:04:03;;;;;;;2.72;2.53;;;;;;;23.72;nan;100399.97;4996087;28;20116;-70
2022/04/26 12:06:48;;;;;;;2.70;2.50;;;;;;;25.57;nan;100405.94;4997040;28;20068;-70
2022/04/26 12:09:32;;;;;;;2.40;2.20;;;;;;;24.53;nan;100413.91;4983705;28;20053;-70
2022/04/26 12:12:16;;;;;;;3.38;2.15;;;;;;;22.41;nan;100412.91;4997244;28;20077;-69
2022/04/26 12:15:04;;;;;;;2.85;2.20;;;;;;;21.37;nan;100419.41;4997878;28;20124;-70
2022/04/26 12:18:21;;;;;;;3.90;2.28;;;;;;;19.39;nan;100426.34;4997881;28;20145;-69
2022/04/26 12:21:05;;;;;;;2.55;2.25;;;;;;;18.55;nan;100417.44;4997620;28;20053;-70
2022/04/26 12:24:08;;;;;;;;;;;;;;;18.53;nan;100423.06;4996949;28;20512;-69
2022/04/26 12:26:54;;;;;;;4.25;2.33;;;;;;;18.53;nan;100417.66;4997498;28;19920;-69
2022/04/26 12:29:43;;;;;;;4.25;2.55;;;;;;;18.90;nan;100416.56;4996529;28;20049;-69
2022/04/26 12:32:28;;;;;;;3.05;2.40;;;;;;;18.75;nan;100422.03;4996469;28;20413;-69
2022/04/26 12:35:12;;;;;;;3.70;2.33;;;;;;;19.57;nan;100420.44;4996337;28;20049;-69
2022/04/26 12:38:03;;;;;;;;;;;;;;;21.65;nan;100417.31;4997025;28;20124;-69
2022/04/26 12:41:00;;;;;;;2.97;2.70;;;;;;;23.86;nan;100410.50;4996147;28;19968;-69
2022/04/26 12:43:44;;;;;;;3.17;2.88;;;;;;;23.86;nan;100410.50;4996552;28;20048;-70
2022/04/26 12:46:28;;;;;;;3.05;2.83;;;;;;;24.09;nan;100416.13;4996495;28;20140;-70
2022/04/26 12:52:17;;;;;;;3.80;3.50;;;;;;;22.10;nan;100419.03;4996098;28;20040;-69
2022/04/26 12:55:01;;;;;;;5.40;3.38;;;;;;;20.59;nan;100429.31;4996877;28;20100;-69
2022/04/26 12:57:48;;;;;;;;;;;;;;;19.55;nan;100438.75;4996384;28;20473;-68
2022/04/26 13:00:35;;;;;;;3.47;3.17;;;;;;;19.49;nan;100436.84;4996069;28;19941;-69
2022/04/26 13:03:22;;;;;;;4.00;3.60;;;;;;;18.36;nan;100439.69;4995670;28;20053;-69
2022/04/26 13:06:08;;;;;;;3.75;3.40;;;;;;;17.18;nan;100441.63;4996084;28;20108;-69
2022/04/26 13:08:52;;;;;;;3.40;3.10;;;;;;;-139.48;100.00;61774.03;4997112;28;20049;-69
2022/04/26 13:11:36;;;;;;;3.28;2.97;;;;;;;-139.48;100.00;61774.03;4995583;28;20053;-69
2022/04/26 13:14:20;;;;;;;3.35;2.92;;;;;;;-139.48;100.00;61774.03;4995471;28;20100;-69
2022/04/26 13:17:06;;;;;;;3.40;2.85;;;;;;;-139.48;100.00;61774.03;4982190;28;20069;-69
2022/04/26 13:19:51;;;;;;;3.58;2.90;;;;;;;-139.48;100.00;61774.03;4995676;28;20057;-69
2022/04/26 13:22:35;;;;;;;3.30;3.00;;;;;;;-139.48;100.00;61774.03;4996908;28;20053;-69
2022/04/26 13:25:19;;;;;;;5.80;3.00;;;;;;;-139.48;100.00;61774.03;4995624;28;20049;-68
2022/04/26 13:28:04;;;;;;;4.32;3.40;;;;;;;17.18;nan;100441.63;4995726;28;20159;-69
2022/04/26 13:30:48;;;;;;;5.93;4.93;;;;;;;13.20;nan;100470.38;4982249;28;20045;-69
2022/04/26 13:33:32;;;;;;;5.60;4.78;;;;;;;12.98;nan;100481.56;4981964;28;20129;-68
2022/04/26 13:36:17;;;;;;;5.55;4.10;;;;;;;12.81;nan;100482.38;4995360;28;20654;-69
2022/04/26 13:39:02;;;;;;;4.97;4.47;;;;;;;12.37;nan;100479.72;4996051;28;20073;-69
2022/04/26 13:41:50;;;;;;;4.88;4.15;;;;;;;-139.48;100.00;61774.03;4996496;28;20053;-69
2022/04/26 13:44:34;;;;;;;6.53;4.70;;;;;;;-139.48;100.00;61774.03;4995211;28;20126;-68
2022/04/26 13:47:19;;;;;;;5.60;4.68;;;;;;;-139.48;100.00;61774.03;4981690;28;20475;-68
2022/04/26 13:50:07;;;;;;;7.70;6.00;;;;;;;-139.48;100.00;61774.03;4995498;28;20046;-68
2022/04/26 13:52:51;;;;;;;8.52;5.20;;;;;;;-139.48;100.00;61774.03;4995112;28;20049;-68
2022/04/26 13:55:35;;;;;;;7.90;5.95;;;;;;;-139.48;100.00;61774.03;4995315;28;20053;-68
2022/04/26 13:58:19;;;;;;;8.15;6.13;;;;;;;-139.48;100.00;61774.03;4995903;28;20093;-68
2022/04/26 14:01:03;;;;;;;10.98;6.45;;;;;;;-139.48;100.00;61774.03;4995056;28;20057;-68
2022/04/26 14:03:48;;;;;;;9.95;7.05;;;;;;;-139.48;100.00;61774.03;4994889;28;20144;-68
2022/04/26 14:06:31;;;;;;;11.07;7.65;;;;;;;-139.48;100.00;61774.03;4995025;28;20045;-69
2022/04/26 14:09:17;;;;;;;10.23;7.68;;;;;;;-139.48;100.00;61774.03;4994984;28;20069;-69
2022/04/26 14:12:02;;;;;;;10.23;6.53;;;;;;;-139.48;100.00;61774.03;4995918;28;20053;-69
2022/04/26 14:23:54;;;;;;;6.28;5.22;;;;;;;-139.48;100.00;61774.03;4995606;28;20041;-68
2022/04/26 14:26:41;;;;;;;9.57;5.75;;;;;;;-139.48;100.00;61774.03;4993823;28;20084;-69
2022/04/26 14:29:25;;;;;;;6.90;5.68;;;;;;;-139.48;100.00;61774.03;4994849;28;20053;-69
2022/04/26 14:32:10;;;;;;;6.07;4.68;;;;;;;-139.48;100.00;61774.03;4995657;28;20077;-69
2022/04/26 14:34:54;;;;;;;5.63;4.68;;;;;;;-139.48;100.00;61774.03;4995802;28;20057;-69
2022/04/26 14:37:38;;;;;;;6.95;5.22;;;;;;;-139.48;100.00;61774.03;4994302;28;20556;-69
2022/04/26 14:40:22;;;;;;;8.10;4.90;;;;;;;-139.48;100.00;61774.03;4994186;28;20084;-68
2022/04/26 14:43:07;;;;;;;6.78;4.85;;;;;;;-139.48;100.00;61774.03;4980143;28;20081;-69
2022/04/26 14:45:53;;;;;;;4.18;3.70;;;;;;;-139.48;100.00;61774.03;4995747;28;20497;-69
2022/04/26 14:48:38;;;;;;;5.55;3.17;;;;;;;-139.48;100.00;61774.03;4993841;28;20155;-69
2022/04/26 14:51:23;;;;;;;3.67;3.30;;;;;;;-139.48;100.00;61774.03;4993708;28;20057;-69
2022/04/26 14:54:07;;;;;;;3.35;2.58;;;;;;;-139.48;100.00;61774.03;4995003;28;20050;-69
2022/04/26 14:56:51;;;;;;;3.88;3.53;;;;;;;-139.48;100.00;61774.03;4995020;28;20064;-69
2022/04/26 14:59:41;;;;;;;2.75;2.08;;;;;;;-139.48;100.00;61774.03;4980203;28;20053;-69
2022/04/26 15:02:26;;;;;;;3.30;2.80;;;;;;;-139.48;100.00;61774.03;4994027;28;20045;-69
2022/04/26 15:05:12;;;;;;;8.50;7.70;;;;;;;12.37;nan;100479.72;4980241;28;20185;-69
2022/04/26 15:10:59;;;;;;;3.88;3.40;;;;;;;17.25;nan;100474.94;4993944;28;20050;-69
2022/04/26 15:16:49;;;;;;;5.38;4.88;;;;;;;17.60;nan;100484.25;4993423;28;20109;-69
2022/04/26 15:19:34;;;;;;;5.68;4.30;;;;;;;17.08;nan;100499.50;4994431;28;20058;-69
2022/04/26 15:22:19;;;;;;;3.97;3.05;;;;;;;16.57;nan;100502.88;4993458;28;20073;-69
2022/04/26 15:25:06;;;;;;;3.95;3.65;;;;;;;16.21;nan;100505.19;4993480;28;20045;-69
2022/04/26 15:27:50;;;;;;;4.72;4.22;;;;;;;15.41;nan;100509.09;4993207;28;20135;-69
2022/04/26 15:30:41;;;;;;;;;;;;;;;15.25;nan;100519.78;4995066;28;20044;-69
2022/04/26 15:33:25;;;;;;;3.97;2.88;;;;;;;14.74;nan;100515.56;4979538;28;19956;-69
2022/04/26 15:36:09;;;;;;;4.70;2.80;;;;;;;14.47;nan;100507.75;4993999;28;20069;-69
2022/04/26 15:38:56;;;;;;;;;;;;;;;14.36;nan;100512.56;4994705;28;20104;-69
2022/04/26 15:41:40;;;;;;;3.47;2.45;;;;;;;13.74;nan;100512.91;4992651;28;20353;-69
2022/04/26 15:44:24;;;;;;;3.33;2.75;;;;;;;13.52;nan;100519.66;4979608;28;20454;-69
2022/04/26 15:47:08;;;;;;;3.53;2.60;;;;;;;13.44;nan;100516.06;4993561;28;20180;-69
2022/04/26 15:49:52;;;;;;;7.15;2.90;;;;;;;13.37;nan;100512.34;4994495;28;20176;-69
2022/04/26 15:52:38;;;;;;;8.30;4.65;;;;;;;13.21;nan;100518.41;4993243;28;20069;-69
2022/04/26 15:55:22;;;;;;;4.28;3.45;;;;;;;13.06;nan;100527.97;4994118;28;20049;-69
2022/04/26 15:58:06;;;;;;;4.18;3.40;;;;;;;12.71;nan;100536.94;4994179;28;20136;-69
2022/04/26 16:00:51;;;;;;;4.38;3.75;;;;;;;12.58;100.00;100537.31;4993903;28;20069;-69
2022/04/26 16:03:35;;;;;;;6.10;4.07;;;;;;;-139.48;100.00;61774.03;4992974;28;20081;-68
2022/04/26 16:06:19;;;;;;;5.40;3.83;;;;;;;-139.48;100.00;61774.03;4993044;28;20053;-69
2022/04/26 16:21:16;;;;;;;6.45;3.60;;;;;;;-139.48;100.00;61774.03;4992662;28;20068;-69
2022/04/26 16:24:00;;;;;;;6.82;4.40;;;;;;;-139.48;100.00;61774.03;4993865;28;20057;-69
2022/04/26 16:26:44;;;;;;;9.52;5.28;;;;;;;-139.48;100.00;61774.03;4992579;28;20133;-69
2022/04/26 16:29:27;;;;;;;6.55;5.07;;;;;;;-139.48;100.00;61774.03;4992870;28;20125;-69
2022/04/26 16:32:11;;;;;;;7.05;4.72;;;;;;;-139.48;100.00;61774.03;4992822;28;20514;-69
2022/04/26 16:34:57;;;;;;;10.10;5.72;;;;;;;-139.48;100.00;61774.03;4979244;28;20049;-69
2022/04/26 16:37:42;;;;;;;11.10;6.35;;;;;;;-139.48;100.00;61774.03;4993968;28;20112;-68
2022/04/26 16:40:28;;;;;;;8.50;5.50;;;;;;;-139.48;100.00;61774.03;4992547;28;20053;-69
2022/04/26 16:43:11;;;;;;;8.20;5.45;;;;;;;-139.48;100.00;61774.03;4993368;28;20518;-69
2022/04/26 16:45:56;;;;;;;5.65;4.40;;;;;;;-139.48;100.00;61774.03;4992724;28;20572;-69
2022/04/26 16:48:40;;;;;;;7.68;5.85;;;;;;;-139.48;100.00;61774.03;4993594;28;20080;-69
2022/04/26 16:51:25;;;;;;;11.80;5.80;;;;;;;-139.48;100.00;61774.03;4996463;28;20049;-69
2022/04/26 16:54:09;;;;;;;12.65;6.32;;;;;;;-139.48;100.00;61774.03;4996130;28;20475;-69
2022/04/26 16:56:52;;;;;;;13.88;7.32;;;;;;;-139.48;100.00;61774.03;4996461;28;20466;-69